Hermann - S — V2EI6 — position and weather

sailwx.info

Track history (hours):
 
Tides and Currents Weather Stations Pressure Air Temp Water Temp Dewpoint Dewpoint Depression Visibility Wind Speed Wind Dir Waves Ship Positions

Hermann - S

Last reported at 2015-Apr-27 07:33 UTC. Time now 2015-May-05 00:13 UTC.
Position N 24°36' E 035°46'.

Length 190 m; draft 12.8 m.

Type: Cargo ship. MMSI: 305441000.

Date/timePositionNaut miles runAvg speedWind from/ knotsBaromVisibWave heightAir tempDewpointWater temp
2015-Apr-27 07:33N 24°36' E 035°46'1111.4
2015-Apr-27 06:33N 24°45' E 035°39'1211.6
2015-Apr-27 05:33N 24°55' E 035°33'1211.6
2015-Apr-27 04:33N 25°06' E 035°26'1211.8
2015-Apr-27 03:33N 25°16' E 035°20'1211.7
2015-Apr-27 02:33N 25°26' E 035°14'1211.9
2015-Apr-27 01:33N 25°36' E 035°07'1211.5
2015-Apr-27 00:33N 25°46' E 035°01'1111.4
2015-Apr-26 23:33N 25°56' E 034°55'2311.5
2015-Apr-26 21:33N 26°16' E 034°42'26210.8
2015-Apr-25 21:18N 30°13' E 032°34'7 9.7
2015-Apr-25 20:32N 30°17' E 032°27'  
2015-Apr-21 16:11N 37°25' E 025°56'711.2
2015-Apr-21 15:33N 37°31' E 025°52'1111.2
2015-Apr-21 14:32N 37°42' E 025°50'222 9.6
2015-Apr-20 15:18N 40°51' E 028°22'911.0
2015-Apr-20 14:31N 40°52' E 028°33'1310.8
2015-Apr-20 13:17N 40°55' E 028°51'4 5.1
2015-Apr-20 12:31N 40°57' E 028°54'0 0.0
2015-Apr-20 09:10N 40°57' E 028°55'0 0.0
2015-Apr-20 08:04N 40°57' E 028°55'0 0.0
2015-Apr-20 07:22N 40°57' E 028°55'0 0.0
2015-Apr-20 06:10N 40°57' E 028°54'0 0.0
2015-Apr-20 01:10N 40°57' E 028°55'0 0.1
2015-Apr-19 22:32N 40°57' E 028°55'20 8.8
2015-Apr-19 20:16N 41°15' E 029°08'5 7.7
2015-Apr-19 19:33N 41°20' E 029°10'6 6.3
2015-Apr-19 18:33N 41°20' E 029°18'5 4.7
2015-Apr-19 17:33N 41°19' E 029°24'0 0.3
2015-Apr-19 16:34N 41°20' E 029°24'0 0.4
2015-Apr-19 15:33N 41°20' E 029°24'0 0.5
2015-Apr-19 14:33N 41°20' E 029°23'0 0.3
2015-Apr-19 13:33N 41°21' E 029°23'1 0.7
2015-Apr-19 12:33N 41°21' E 029°24'1 0.7
2015-Apr-19 11:33N 41°22' E 029°25'1 0.9
2015-Apr-19 10:33N 41°22' E 029°25'1 1.1
2015-Apr-19 09:33N 41°23' E 029°26'1 1.1
2015-Apr-19 08:33N 41°24' E 029°27'1 1.0
2015-Apr-19 07:33N 41°25' E 029°27'1 1.1
2015-Apr-19 06:33N 41°26' E 029°27'269 7.2
2015-Apr-17 17:03N 45°48' E 030°55'610.6
2015-Apr-17 16:30N 45°54' E 030°58'19 9.7
2015-Apr-17 14:33N 46°13' E 030°57'  
Track history (hours):
 
Tides and Currents Weather Stations Pressure Air Temp Water Temp Dewpoint Dewpoint Depression Visibility Wind Speed Wind Dir Waves Ship Positions

Hermann - S

Last reported at 2015-Apr-27 07:33 UTC. Time now 2015-May-05 00:13 UTC.
Position N 24°36' E 035°46'.

Length 190 m; draft 12.8 m.

Type: Cargo ship. MMSI: 305441000.

Date/timePositionNaut miles runAvg speedWind from/ knotsBaromVisibWave heightAir tempDewpointWater temp
2015-Apr-27 07:33N 24°36' E 035°46'1111.4
2015-Apr-27 06:33N 24°45' E 035°39'1211.6
2015-Apr-27 05:33N 24°55' E 035°33'1211.6
2015-Apr-27 04:33N 25°06' E 035°26'1211.8
2015-Apr-27 03:33N 25°16' E 035°20'1211.7
2015-Apr-27 02:33N 25°26' E 035°14'1211.9
2015-Apr-27 01:33N 25°36' E 035°07'1211.5
2015-Apr-27 00:33N 25°46' E 035°01'1111.4
2015-Apr-26 23:33N 25°56' E 034°55'2311.5
2015-Apr-26 21:33N 26°16' E 034°42'26210.8
2015-Apr-25 21:18N 30°13' E 032°34'7 9.7
2015-Apr-25 20:32N 30°17' E 032°27'  
2015-Apr-21 16:11N 37°25' E 025°56'711.2
2015-Apr-21 15:33N 37°31' E 025°52'1111.2
2015-Apr-21 14:32N 37°42' E 025°50'222 9.6
2015-Apr-20 15:18N 40°51' E 028°22'911.0
2015-Apr-20 14:31N 40°52' E 028°33'1310.8
2015-Apr-20 13:17N 40°55' E 028°51'4 5.1
2015-Apr-20 12:31N 40°57' E 028°54'0 0.0
2015-Apr-20 09:10N 40°57' E 028°55'0 0.0
2015-Apr-20 08:04N 40°57' E 028°55'0 0.0
2015-Apr-20 07:22N 40°57' E 028°55'0 0.0
2015-Apr-20 06:10N 40°57' E 028°54'0 0.0
2015-Apr-20 01:10N 40°57' E 028°55'0 0.1
2015-Apr-19 22:32N 40°57' E 028°55'20 8.8
2015-Apr-19 20:16N 41°15' E 029°08'5 7.7
2015-Apr-19 19:33N 41°20' E 029°10'6 6.3
2015-Apr-19 18:33N 41°20' E 029°18'5 4.7
2015-Apr-19 17:33N 41°19' E 029°24'0 0.3
2015-Apr-19 16:34N 41°20' E 029°24'0 0.4
2015-Apr-19 15:33N 41°20' E 029°24'0 0.5
2015-Apr-19 14:33N 41°20' E 029°23'0 0.3
2015-Apr-19 13:33N 41°21' E 029°23'1 0.7
2015-Apr-19 12:33N 41°21' E 029°24'1 0.7
2015-Apr-19 11:33N 41°22' E 029°25'1 0.9
2015-Apr-19 10:33N 41°22' E 029°25'1 1.1
2015-Apr-19 09:33N 41°23' E 029°26'1 1.1
2015-Apr-19 08:33N 41°24' E 029°27'1 1.0
2015-Apr-19 07:33N 41°25' E 029°27'1 1.1
2015-Apr-19 06:33N 41°26' E 029°27'269 7.2
2015-Apr-17 17:03N 45°48' E 030°55'610.6
2015-Apr-17 16:30N 45°54' E 030°58'19 9.7
2015-Apr-17 14:33N 46°13' E 030°57'  

Dump ship's entire track history